Time;durP1;ratioP1;P1;durP2;ratioP2;P2;SDS_P1;SDS_P2;PMS_P1;PMS_P2;Temp;Humidity;BMP_temperature;BMP_pressure;BME280_temperature;BME280_humidity;BME280_pressure;Samples;Min_cycle;Max_cycle;Signal;HPM_P1;HPM_P2
2022/01/02 00:01:00;;;;;;;12.70;2.65;;;;;;;13.15;83.15;100080.25;6156146;23;20011;-73
2022/01/02 00:03:45;;;;;;;9.90;2.83;;;;;;;13.10;82.81;100068.22;6121181;23;20091;-74
2022/01/02 00:06:15;;;;;;;24.63;4.07;;;;;;;13.10;83.30;100089.38;6129778;23;20080;-76
2022/01/02 00:08:42;;;;;;;25.27;4.55;;;;;;;12.89;83.23;100069.53;6126079;23;20047;-76
2022/01/02 00:11:25;;;;;;;20.70;3.78;;;;;;;12.90;83.26;100065.69;6151999;23;20009;-82
2022/01/02 00:13:55;;;;;;;22.85;3.67;;;;;;;12.92;83.32;100066.19;6125228;23;20009;-78
2022/01/02 00:16:24;;;;;;;21.75;4.00;;;;;;;12.78;83.61;100051.56;6153793;23;20084;-75
2022/01/02 00:19:03;;;;;;;30.73;5.25;;;;;;;12.84;83.15;100055.88;6153438;23;20072;-74
2022/01/02 00:21:31;;;;;;;16.20;3.13;;;;;;;12.85;83.47;100035.53;6125700;23;20020;-74
2022/01/02 00:24:03;;;;;;;15.93;3.35;;;;;;;12.86;83.44;100024.28;6126008;23;20447;-78
2022/01/02 00:26:39;;;;;;;22.38;3.47;;;;;;;12.91;83.38;100021.47;6153661;23;20072;-79
2022/01/02 00:29:07;;;;;;;19.48;3.13;;;;;;;12.88;83.05;100021.25;6136930;23;20041;-80
2022/01/02 00:31:33;;;;;;;21.33;3.97;;;;;;;12.82;83.26;100022.41;6151982;23;20017;-78
2022/01/02 00:34:00;;;;;;;27.48;3.05;;;;;;;12.77;83.13;100038.94;6151419;23;20388;-83
2022/01/02 00:37:15;;;;;;;15.00;2.88;;;;;;;12.68;83.40;100014.88;6130229;23;20024;-83
2022/01/02 00:39:53;;;;;;;;;;;;;;;;;;;;;
2022/01/02 00:42:29;;;;;;;16.58;3.72;;;;;;;12.72;83.81;100017.88;6152562;23;20084;-76
2022/01/02 00:45:36;;;;;;;21.77;3.08;;;;;;;12.61;83.52;100025.38;6151531;23;20012;-74
2022/01/02 00:48:10;;;;;;;;;;;;;;;12.75;83.72;100018.09;6160518;23;20085;-77
2022/01/02 00:50:49;;;;;;;29.15;4.05;;;;;;;12.70;83.33;100009.09;6151673;23;19912;-75
2022/01/02 00:53:19;;;;;;;26.42;4.28;;;;;;;12.63;83.92;100003.97;6150692;23;20010;-75
2022/01/02 00:55:56;;;;;;;17.17;3.47;;;;;;;12.54;84.09;99997.44;6150139;23;20012;-74
2022/01/02 00:58:30;;;;;;;32.63;3.92;;;;;;;12.51;84.28;99989.81;6150521;23;20009;-75
2022/01/02 01:00:59;;;;;;;17.90;2.97;;;;;;;12.52;84.47;99991.44;6151960;23;20033;-75
2022/01/02 01:03:31;;;;;;;22.50;3.20;;;;;;;12.57;84.00;100025.13;6152459;23;20328;-75
2022/01/02 01:06:02;;;;;;;17.73;3.25;;;;;;;12.52;84.66;99985.97;6147878;23;20006;-75
2022/01/02 01:08:31;;;;;;;17.42;2.90;;;;;;;12.50;83.90;99968.97;6152104;23;20033;-74
2022/01/02 01:10:58;;;;;;;28.50;3.75;;;;;;;12.53;83.88;99963.72;6150371;23;20080;-74
2022/01/02 01:13:24;;;;;;;18.17;2.70;;;;;;;12.56;83.84;99965.09;6152196;23;20001;-75
2022/01/02 01:15:50;;;;;;;9.18;2.55;;;;;;;12.55;83.81;99963.44;6151732;23;20017;-74
2022/01/02 01:18:15;;;;;;;18.13;3.03;;;;;;;12.58;83.50;99966.41;6153342;23;20435;-75
2022/01/02 01:20:43;;;;;;;20.45;3.30;;;;;;;12.58;83.32;99957.38;6155825;23;20005;-74
2022/01/02 01:23:16;;;;;;;18.40;2.80;;;;;;;12.54;83.46;99956.31;6152845;23;20032;-75
2022/01/02 01:25:46;;;;;;;26.13;2.85;;;;;;;12.53;83.25;99949.22;6156235;23;20002;-74
2022/01/02 01:28:13;;;;;;;15.15;2.97;;;;;;;12.55;82.85;99947.78;6154221;23;20059;-75
2022/01/02 01:30:39;;;;;;;22.88;3.38;;;;;;;12.59;82.96;99942.56;6158625;23;20071;-74
2022/01/02 01:33:05;;;;;;;18.67;3.03;;;;;;;12.57;82.90;99950.25;6158820;23;20001;-75
2022/01/02 01:35:30;;;;;;;28.30;3.15;;;;;;;12.65;82.78;99946.06;6157914;23;20013;-75
2022/01/02 01:37:56;;;;;;;21.30;2.88;;;;;;;12.67;82.78;99927.38;6182970;23;20084;-75
2022/01/02 01:40:22;;;;;;;13.85;2.92;;;;;;;12.60;82.43;99933.22;6156268;23;20067;-73
2022/01/02 01:43:01;;;;;;;11.85;2.17;;;;;;;12.66;82.16;99943.03;6182123;23;20348;-74
2022/01/02 01:45:29;;;;;;;20.25;3.22;;;;;;;12.69;82.35;99930.66;6181092;23;20013;-74
2022/01/02 01:48:09;;;;;;;18.20;3.25;;;;;;;12.66;82.17;99943.03;6183411;23;20603;-75
2022/01/02 01:50:40;;;;;;;16.83;3.00;;;;;;;12.68;82.36;99934.50;6183457;23;20001;-74
2022/01/02 01:53:06;;;;;;;24.98;3.22;;;;;;;12.64;82.77;99939.75;6182838;23;20001;-76
2022/01/02 01:55:34;;;;;;;31.35;3.20;;;;;;;12.64;82.36;99950.72;6182946;23;20005;-75
2022/01/02 01:58:01;;;;;;;11.95;2.55;;;;;;;12.71;82.71;99945.69;6183522;23;20328;-75
2022/01/02 02:00:26;;;;;;;13.93;2.78;;;;;;;12.69;82.38;99939.69;6184448;23;20028;-76
2022/01/02 02:02:54;;;;;;;11.95;3.10;;;;;;;12.58;82.93;99932.69;6184127;23;20332;-74
2022/01/02 02:05:20;;;;;;;18.77;3.38;;;;;;;12.67;82.68;99928.19;6157465;23;20005;-75
2022/01/02 02:07:46;;;;;;;17.80;3.30;;;;;;;12.61;82.98;99934.84;6155203;23;20020;-74
2022/01/02 02:10:39;;;;;;;21.38;2.92;;;;;;;12.57;83.90;99936.53;6156118;23;20365;-73
2022/01/02 02:13:06;;;;;;;15.60;2.72;;;;;;;12.53;83.65;99917.09;6154831;23;20001;-74
2022/01/02 02:15:32;;;;;;;17.00;3.13;;;;;;;12.45;84.31;99916.94;6180981;23;20005;-73
2022/01/02 02:17:57;;;;;;;20.73;3.95;;;;;;;12.47;84.67;99906.47;6181417;23;20032;-73
2022/01/02 02:20:26;;;;;;;20.65;3.58;;;;;;;12.49;84.32;99909.75;6183290;23;20004;-74
2022/01/02 02:22:55;;;;;;;8.90;3.05;;;;;;;12.50;84.62;99911.38;6179280;23;20012;-74
2022/01/02 02:25:29;;;;;;;19.65;3.25;;;;;;;12.52;84.10;99909.19;6181404;23;20055;-74
2022/01/02 02:27:57;;;;;;;27.75;3.05;;;;;;;12.52;84.36;99898.22;6179905;23;21075;-73
2022/01/02 02:30:25;;;;;;;24.25;3.22;;;;;;;12.53;84.65;99897.09;6155388;23;20532;-74
2022/01/02 02:32:53;;;;;;;14.35;2.88;;;;;;;12.47;84.34;99896.34;6179773;23;20640;-73
2022/01/02 02:35:19;;;;;;;32.28;3.72;;;;;;;12.34;85.40;99889.63;6180166;23;20063;-74
2022/01/02 02:37:45;;;;;;;24.65;2.95;;;;;;;12.32;86.23;99886.34;6154759;23;20368;-74
2022/01/02 02:40:13;;;;;;;5.45;2.15;;;;;;;12.27;86.44;99875.44;6181357;23;20477;-74
2022/01/02 02:51:19;;;;;;;23.25;3.13;;;;;;;12.10;87.05;99870.41;6181392;23;20020;-75
2022/01/02 02:53:47;;;;;;;15.75;3.03;;;;;;;12.15;86.75;99896.94;6181125;23;20497;-74
2022/01/02 02:56:23;;;;;;;18.42;3.38;;;;;;;12.14;86.56;99859.69;6181143;23;20079;-74
2022/01/02 02:58:51;;;;;;;24.02;2.83;;;;;;;12.18;86.22;99860.75;6153308;23;20016;-75
2022/01/02 03:01:22;;;;;;;15.15;2.90;;;;;;;12.12;86.03;99856.41;6155867;23;20020;-76
2022/01/02 03:03:47;;;;;;;21.05;3.50;;;;;;;12.11;86.58;99852.06;6181879;23;20138;-76
2022/01/02 03:06:14;;;;;;;18.52;2.20;;;;;;;12.10;86.46;99864.13;6155672;23;20013;-75
2022/01/02 03:08:41;;;;;;;20.33;2.55;;;;;;;12.04;85.72;99838.69;6155638;23;20005;-75
2022/01/02 03:11:10;;;;;;;17.30;3.10;;;;;;;12.12;85.35;99820.78;6181123;23;20012;-74
2022/01/02 03:13:36;;;;;;;13.23;2.83;;;;;;;12.13;84.31;99833.38;6181043;23;20444;-75
2022/01/02 03:16:02;;;;;;;16.67;2.83;;;;;;;12.14;84.00;99835.03;6153674;23;20009;-75
2022/01/02 03:18:27;;;;;;;28.95;3.80;;;;;;;12.20;83.25;99847.56;6154740;23;20380;-75
2022/01/02 03:20:53;;;;;;;19.45;2.28;;;;;;;12.33;83.08;99933.78;6129206;23;20009;-75
2022/01/02 03:23:18;;;;;;;24.52;2.92;;;;;;;12.29;82.92;99862.25;6163175;23;20009;-72
2022/01/02 03:25:44;;;;;;;13.63;2.67;;;;;;;12.39;82.95;99831.97;6126451;23;20014;-73
2022/01/02 03:28:09;;;;;;;7.18;2.00;;;;;;;12.32;82.75;99828.75;6175064;23;20020;-74
2022/01/02 03:30:35;;;;;;;18.35;2.53;;;;;;;12.33;83.33;99844.13;6114705;23;20022;-71
2022/01/02 03:33:00;;;;;;;15.93;2.55;;;;;;;12.29;83.83;99834.84;6154870;23;20424;-72
2022/01/02 03:35:28;;;;;;;14.82;2.42;;;;;;;12.28;83.94;99835.97;6159775;23;20020;-74
2022/01/02 03:37:54;;;;;;;24.17;3.10;;;;;;;12.19;85.43;99843.19;6126908;23;20006;-74
2022/01/02 03:40:20;;;;;;;20.83;3.20;;;;;;;12.15;86.77;99872.28;6125914;23;20013;-74
2022/01/02 03:42:48;;;;;;;17.88;3.08;;;;;;;12.03;88.25;99880.88;6149116;23;20013;-75
2022/01/02 03:45:14;;;;;;;6.03;1.52;;;;;;;11.82;88.43;99830.94;6128697;23;20013;-75
2022/01/02 03:47:39;;;;;;;1.10;0.60;;;;;;;11.64;88.85;99814.13;6152239;23;20329;-75
2022/01/02 03:50:06;;;;;;;1.17;0.57;;;;;;;11.49;90.16;99823.28;6153085;23;20309;-75
2022/01/02 03:52:32;;;;;;;4.40;0.85;;;;;;;11.39;90.44;99786.94;6152629;23;20009;-75
2022/01/02 03:54:57;;;;;;;2.60;0.50;;;;;;;11.37;90.82;99781.75;6153276;23;20028;-75
2022/01/02 03:57:23;;;;;;;3.47;0.90;;;;;;;11.33;90.80;99797.97;6102367;23;20088;-75
2022/01/02 03:59:49;;;;;;;0.68;0.55;;;;;;;11.29;90.91;99805.09;6126175;23;20009;-75
2022/01/02 04:02:14;;;;;;;0.90;0.47;;;;;;;11.28;91.60;99792.50;6126729;23;20380;-75
2022/01/02 04:04:40;;;;;;;1.65;0.50;;;;;;;11.22;91.61;99785.44;6152641;23;20005;-75
2022/01/02 04:07:05;;;;;;;0.60;0.38;;;;;;;11.19;91.48;99802.44;6152877;23;20016;-75
2022/01/02 04:09:31;;;;;;;1.20;0.98;;;;;;;11.19;91.93;99805.19;6125632;23;20090;-76
2022/01/02 04:11:56;;;;;;;2.38;0.70;;;;;;;11.15;91.28;99795.91;6126288;23;20132;-74
2022/01/02 04:14:22;;;;;;;4.13;0.60;;;;;;;11.12;92.25;99788.25;6151454;23;20013;-75
2022/01/02 04:16:47;;;;;;;0.75;0.32;;;;;;;11.10;92.13;99793.22;6153201;23;20312;-75
2022/01/02 04:19:13;;;;;;;3.55;0.40;;;;;;;11.02;91.80;99812.97;6126077;23;20405;-75
2022/01/02 04:21:38;;;;;;;2.53;0.35;;;;;;;10.95;91.40;99789.50;6154002;23;20032;-77
2022/01/02 04:24:04;;;;;;;0.20;0.20;;;;;;;10.89;91.28;99782.38;6152565;23;20010;-77
2022/01/02 04:26:30;;;;;;;0.22;0.20;;;;;;;10.84;92.07;99774.25;6154974;23;20712;-77
2022/01/02 04:28:58;;;;;;;0.40;0.20;;;;;;;10.81;91.50;99783.81;6162405;23;20088;-77
2022/01/02 04:31:24;;;;;;;1.15;0.25;;;;;;;10.76;91.99;99793.97;6157380;23;20005;-77
2022/01/02 04:33:49;;;;;;;2.30;0.32;;;;;;;10.65;92.01;99794.03;6182138;23;20005;-79
2022/01/02 04:36:15;;;;;;;0.40;0.20;;;;;;;10.62;92.01;99774.66;6110841;23;20104;-77
2022/01/02 04:38:42;;;;;;;1.70;0.20;;;;;;;10.54;91.50;99770.59;6132340;23;20005;-74
2022/01/02 04:41:08;;;;;;;0.32;0.10;;;;;;;10.47;91.95;99775.56;6180090;23;20009;-75
2022/01/02 04:43:33;;;;;;;0.32;0.10;;;;;;;10.46;91.66;99776.66;6182404;23;20004;-74
2022/01/02 04:45:59;;;;;;;0.20;0.20;;;;;;;10.40;91.71;99775.84;6179896;23;20077;-75
2022/01/02 04:48:24;;;;;;;0.75;0.43;;;;;;;10.35;91.92;99775.06;6177160;23;20375;-75
2022/01/02 04:50:50;;;;;;;0.30;0.20;;;;;;;10.30;92.18;99784.88;6181640;23;20036;-74
2022/01/02 04:53:16;;;;;;;0.85;0.20;;;;;;;10.28;91.78;99795.28;6180363;23;20064;-75
2022/01/02 04:55:42;;;;;;;0.40;0.20;;;;;;;10.23;91.69;99798.00;6158453;23;20013;-72
2022/01/02 04:58:07;;;;;;;0.15;0.15;;;;;;;10.20;92.08;99793.09;6181285;23;20332;-71
2022/01/02 05:00:33;;;;;;;3.60;0.20;;;;;;;10.19;91.88;99785.19;6133177;23;20146;-71
2022/01/02 05:02:58;;;;;;;0.32;0.22;;;;;;;10.11;92.38;99787.41;6182317;23;20008;-72
2022/01/02 05:05:24;;;;;;;0.38;0.32;;;;;;;10.08;91.87;99789.88;6157646;23;20065;-72
2022/01/02 05:07:49;;;;;;;0.60;0.20;;;;;;;10.08;92.38;99787.97;6184077;23;20080;-73
2022/01/02 05:10:15;;;;;;;1.30;0.20;;;;;;;10.09;92.44;99797.81;6183524;23;20011;-73
2022/01/02 05:12:40;;;;;;;0.22;0.17;;;;;;;10.09;91.98;99802.44;6155463;23;20013;-73
2022/01/02 05:15:06;;;;;;;0.38;0.10;;;;;;;10.05;92.21;99802.19;6155789;23;20456;-73
2022/01/02 05:17:32;;;;;;;0.63;0.20;;;;;;;10.06;91.89;99803.00;6156073;23;20131;-71
2022/01/02 05:19:57;;;;;;;0.30;0.10;;;;;;;10.03;92.28;99798.09;6178246;23;20037;-71
2022/01/02 05:22:23;;;;;;;0.10;0.00;;;;;;;10.05;92.42;99831.44;6154905;23;20442;-72
2022/01/02 05:24:48;;;;;;;2.35;1.33;;;;;;;10.01;92.41;99811.22;6179354;23;20013;-72
2022/01/02 05:27:14;;;;;;;0.20;0.20;;;;;;;10.02;91.88;99819.13;6130031;23;20005;-72
2022/01/02 05:29:39;;;;;;;0.47;0.40;;;;;;;10.01;92.28;99816.69;6181975;23;20080;-72
2022/01/02 05:32:05;;;;;;;0.03;0.03;;;;;;;9.99;91.96;99813.38;6179272;23;20005;-71
2022/01/02 05:34:31;;;;;;;1.10;0.20;;;;;;;10.01;92.16;99827.59;6181453;23;20009;-72
2022/01/02 05:36:56;;;;;;;0.45;0.10;;;;;;;10.03;92.05;99828.13;6180166;23;20092;-71
2022/01/02 05:39:22;;;;;;;0.52;0.10;;;;;;;10.12;92.34;99845.63;6179285;23;20036;-72
2022/01/02 05:41:50;;;;;;;0.70;0.10;;;;;;;10.18;92.55;99825.38;6180381;23;20016;-71
2022/01/02 05:44:15;;;;;;;0.47;0.00;;;;;;;10.24;92.44;99826.97;6153650;23;20101;-71
2022/01/02 05:46:41;;;;;;;0.35;0.10;;;;;;;10.28;92.16;99814.41;6130786;23;20033;-72
2022/01/02 05:49:07;;;;;;;0.47;0.10;;;;;;;10.24;91.73;99837.91;6154428;23;20017;-72
2022/01/02 05:51:33;;;;;;;3.05;0.20;;;;;;;10.21;91.76;99827.53;6156167;23;20097;-71
2022/01/02 05:53:59;;;;;;;0.00;0.00;;;;;;;10.17;91.30;99834.66;6182844;23;20036;-70
2022/01/02 05:56:24;;;;;;;0.00;0.00;;;;;;;10.13;92.05;99831.69;6155001;23;20020;-72
2022/01/02 05:58:50;;;;;;;0.20;0.00;;;;;;;10.06;91.42;99849.44;6181747;23;20009;-71
2022/01/02 06:01:15;;;;;;;0.73;0.20;;;;;;;10.04;91.83;99835.25;6184166;23;20005;-71
2022/01/02 06:03:41;;;;;;;0.15;0.00;;;;;;;9.98;92.05;99848.09;6182046;23;20009;-71
2022/01/02 06:06:06;;;;;;;0.55;0.10;;;;;;;9.92;91.79;99841.00;6155631;23;20009;-73
2022/01/02 06:08:32;;;;;;;0.43;0.10;;;;;;;9.92;91.69;99849.19;6156819;23;20009;-73
2022/01/02 06:10:58;;;;;;;0.90;0.17;;;;;;;9.89;91.65;99855.22;6183664;23;20070;-71
2022/01/02 06:13:23;;;;;;;0.10;0.00;;;;;;;9.86;91.41;99848.38;6156414;23;20008;-72
2022/01/02 06:15:49;;;;;;;0.20;0.10;;;;;;;9.83;91.71;99854.41;6182329;23;20009;-72
2022/01/02 06:18:14;;;;;;;0.10;0.00;;;;;;;9.81;91.45;99845.66;6181262;23;20063;-71
2022/01/02 06:20:40;;;;;;;0.00;0.00;;;;;;;9.76;91.83;99840.19;6182692;23;20644;-72
2022/01/02 06:23:05;;;;;;;0.40;0.20;;;;;;;9.72;91.41;99837.19;6181772;23;20424;-71
2022/01/02 06:25:31;;;;;;;2.95;0.63;;;;;;;9.72;91.25;99836.38;6181469;23;20018;-71
2022/01/02 06:27:59;;;;;;;0.65;0.20;;;;;;;9.71;91.17;99845.66;6183113;23;20001;-71
2022/01/02 06:30:24;;;;;;;0.10;0.00;;;;;;;9.69;91.42;99845.13;6153176;23;20025;-72
2022/01/02 06:32:54;;;;;;;0.45;0.10;;;;;;;9.70;91.59;99844.03;6181723;23;20012;-72
2022/01/02 06:35:25;;;;;;;0.10;0.08;;;;;;;9.67;91.64;99850.06;6151970;23;20020;-71
2022/01/02 06:37:51;;;;;;;0.38;0.00;;;;;;;9.63;92.29;99854.41;6155338;23;20009;-71
2022/01/02 06:40:17;;;;;;;0.22;0.10;;;;;;;9.58;91.43;99847.84;6181529;23;20028;-70
2022/01/02 06:42:42;;;;;;;0.25;0.10;;;;;;;9.59;91.43;99862.31;6154607;23;20008;-71
2022/01/02 06:45:08;;;;;;;0.20;0.10;;;;;;;9.56;91.24;99854.69;6181439;23;20016;-70
2022/01/02 06:47:34;;;;;;;0.90;0.03;;;;;;;9.54;91.74;99865.88;6154468;23;20009;-70
2022/01/02 06:49:59;;;;;;;2.90;0.08;;;;;;;9.50;91.45;99867.50;6182151;23;20009;-70
2022/01/02 06:52:25;;;;;;;0.00;0.00;;;;;;;9.47;91.20;99868.06;6129901;23;20032;-72
2022/01/02 06:54:53;;;;;;;0.00;0.00;;;;;;;9.47;91.32;99862.59;6154225;23;20709;-71
2022/01/02 06:57:20;;;;;;;0.10;0.00;;;;;;;9.40;91.07;99867.50;6182064;23;20513;-72
2022/01/02 06:59:46;;;;;;;0.00;0.00;;;;;;;9.42;90.80;99876.25;6154768;23;20043;-72
2022/01/02 07:02:11;;;;;;;2.75;0.10;;;;;;;9.40;91.30;99883.88;6183657;23;20015;-72
2022/01/02 07:04:37;;;;;;;0.00;0.00;;;;;;;9.40;91.70;99884.72;6152393;23;20009;-72
2022/01/02 07:07:03;;;;;;;0.20;0.10;;;;;;;9.39;91.45;99893.16;6183030;23;20013;-72
2022/01/02 07:09:31;;;;;;;0.20;0.10;;;;;;;9.41;91.60;99904.63;6156245;23;20004;-72
2022/01/02 07:11:57;;;;;;;0.15;0.00;;;;;;;9.41;91.25;99901.88;6183397;23;20458;-71
2022/01/02 07:14:26;;;;;;;0.40;0.10;;;;;;;9.39;91.76;99904.09;6184150;23;20009;-71
2022/01/02 07:16:52;;;;;;;0.30;0.10;;;;;;;9.42;91.92;99903.53;6182882;23;20001;-71
2022/01/02 07:19:18;;;;;;;0.03;0.00;;;;;;;9.46;91.13;99915.53;6156406;23;20064;-72
2022/01/02 07:21:43;;;;;;;0.22;0.10;;;;;;;9.52;91.65;99925.38;6183267;23;20421;-72
2022/01/02 07:24:08;;;;;;;0.20;0.00;;;;;;;9.61;91.62;99923.75;6183001;23;20309;-72
2022/01/02 07:26:34;;;;;;;0.30;0.10;;;;;;;9.68;91.76;99923.50;6184418;23;20009;-72
2022/01/02 07:28:59;;;;;;;0.60;0.20;;;;;;;9.79;92.28;99930.56;6133605;23;20017;-72
2022/01/02 07:31:25;;;;;;;0.55;0.10;;;;;;;9.86;92.21;99941.22;6185276;23;20063;-72
2022/01/02 07:33:50;;;;;;;1.20;0.20;;;;;;;9.96;92.00;99945.88;6156525;23;20016;-72
2022/01/02 07:36:16;;;;;;;0.30;0.03;;;;;;;10.02;92.22;99952.16;6156512;23;20013;-71
2022/01/02 07:38:41;;;;;;;0.15;0.10;;;;;;;10.04;91.84;99941.78;6178475;23;20016;-71
2022/01/02 07:41:07;;;;;;;0.10;0.10;;;;;;;10.15;92.31;99959.81;6129832;23;20035;-73
2022/01/02 07:43:32;;;;;;;0.52;0.10;;;;;;;10.22;91.93;99956.78;6183624;23;20313;-72
2022/01/02 07:45:58;;;;;;;1.00;0.10;;;;;;;10.26;91.79;99961.41;6156946;23;20005;-72
2022/01/02 07:48:23;;;;;;;0.13;0.00;;;;;;;10.29;91.41;99970.97;6182923;23;20008;-71
2022/01/02 07:50:49;;;;;;;0.00;0.00;;;;;;;10.33;91.76;99961.16;6184144;23;20009;-71
2022/01/02 07:53:14;;;;;;;0.00;0.00;;;;;;;10.36;91.61;99970.75;6181356;23;20372;-71
2022/01/02 07:55:40;;;;;;;0.43;0.20;;;;;;;10.39;91.52;99983.84;6154796;23;20048;-72
2022/01/02 07:58:05;;;;;;;0.00;0.00;;;;;;;10.40;91.54;99977.31;6131398;23;20440;-73
2022/01/02 08:00:31;;;;;;;2.50;0.30;;;;;;;10.48;91.66;99984.91;6182825;23;20528;-72
2022/01/02 08:02:56;;;;;;;0.10;0.10;;;;;;;10.48;91.83;99984.91;6156361;23;20805;-73
2022/01/02 08:05:22;;;;;;;0.35;0.10;;;;;;;10.53;91.70;99979.47;6107114;23;20139;-72
2022/01/02 08:07:47;;;;;;;0.40;0.10;;;;;;;10.54;91.82;99989.31;6182376;23;20143;-72
2022/01/02 08:10:15;;;;;;;0.45;0.30;;;;;;;10.56;91.52;99987.09;6180918;23;20004;-72
2022/01/02 08:12:40;;;;;;;0.38;0.05;;;;;;;10.58;91.31;99995.03;6181753;23;20075;-71
2022/01/02 08:15:06;;;;;;;0.05;0.00;;;;;;;10.61;90.94;99995.28;6181496;23;20063;-72
2022/01/02 08:17:32;;;;;;;0.00;0.00;;;;;;;10.65;91.46;100001.84;6179991;23;20096;-71
2022/01/02 08:19:57;;;;;;;0.10;0.00;;;;;;;10.67;90.93;100004.28;6155487;23;20092;-70
2022/01/02 08:22:26;;;;;;;0.77;0.22;;;;;;;10.69;90.75;99998.53;6177663;23;20009;-73
2022/01/02 08:24:51;;;;;;;0.00;0.00;;;;;;;10.73;91.15;100007.84;6156550;23;20012;-72
2022/01/02 08:27:17;;;;;;;0.08;0.08;;;;;;;10.77;91.13;100014.41;6183284;23;20001;-71
2022/01/02 08:29:42;;;;;;;0.17;0.10;;;;;;;10.78;91.07;100014.13;6154662;23;20021;-72
2022/01/02 08:32:08;;;;;;;1.33;0.10;;;;;;;10.79;90.47;100015.78;6156206;23;20277;-72
2022/01/02 08:34:33;;;;;;;2.78;0.17;;;;;;;10.81;90.75;100002.63;6156797;23;20001;-73
2022/01/02 08:36:59;;;;;;;0.00;0.00;;;;;;;10.87;91.38;100003.44;6183501;23;20009;-71
2022/01/02 08:39:24;;;;;;;0.20;0.10;;;;;;;10.91;91.05;100020.13;6153684;23;20012;-70
2022/01/02 08:41:50;;;;;;;0.17;0.17;;;;;;;10.92;91.04;100011.63;6151846;23;20369;-72
2022/01/02 08:44:15;;;;;;;0.25;0.10;;;;;;;10.95;90.20;100022.03;6182410;23;20088;-71
2022/01/02 08:46:40;;;;;;;0.20;0.20;;;;;;;10.93;90.58;100012.44;6151965;23;20005;-72
2022/01/02 08:49:06;;;;;;;0.52;0.17;;;;;;;10.92;90.58;100010.81;6155494;23;20024;-71
2022/01/02 08:51:31;;;;;;;0.25;0.10;;;;;;;10.91;90.44;100015.47;6155822;23;20020;-71
2022/01/02 08:53:57;;;;;;;0.20;0.10;;;;;;;10.96;91.10;100012.69;6155270;23;20083;-72
2022/01/02 08:56:23;;;;;;;0.43;0.03;;;;;;;10.99;90.97;100006.69;6182028;23;20329;-72
2022/01/02 08:58:48;;;;;;;0.50;0.10;;;;;;;11.02;90.74;99999.00;6156271;23;20005;-72
2022/01/02 09:01:13;;;;;;;1.05;0.10;;;;;;;11.08;90.04;100006.09;6154840;23;20079;-72
2022/01/02 09:03:39;;;;;;;2.13;0.20;;;;;;;11.06;90.39;100009.09;6155332;23;20013;-71
2022/01/02 09:06:05;;;;;;;0.60;0.40;;;;;;;11.00;89.85;99996.56;6179039;23;20020;-72
2022/01/02 09:08:30;;;;;;;0.45;0.10;;;;;;;10.92;89.74;100000.69;6181660;23;20009;-71
2022/01/02 09:10:58;;;;;;;2.63;0.20;;;;;;;10.88;90.63;99996.88;6182448;23;20320;-71
2022/01/02 09:13:26;;;;;;;0.43;0.20;;;;;;;10.87;89.89;99997.97;6155404;23;20013;-71
2022/01/02 09:15:52;;;;;;;0.90;0.10;;;;;;;10.88;90.40;99999.59;6156521;23;20083;-71
2022/01/02 09:18:17;;;;;;;1.50;0.20;;;;;;;10.87;90.47;99992.50;6181212;23;20356;-72
2022/01/02 09:20:43;;;;;;;0.30;0.20;;;;;;;10.93;90.19;99996.84;6129679;23;20020;-71
2022/01/02 09:23:09;;;;;;;1.70;0.40;;;;;;;10.92;90.46;100000.69;6180980;23;20028;-72
2022/01/02 09:25:35;;;;;;;1.20;0.35;;;;;;;10.98;90.39;100005.03;6152555;23;20020;-71
2022/01/02 09:28:08;;;;;;;1.20;0.40;;;;;;;10.97;90.32;99989.72;6180454;23;20009;-71
2022/01/02 09:30:38;;;;;;;3.70;0.65;;;;;;;11.11;89.79;99994.59;6124876;23;20048;-72
2022/01/02 09:33:15;;;;;;;1.45;0.35;;;;;;;11.23;90.47;99984.16;6150125;23;20432;-74
2022/01/02 09:35:45;;;;;;;4.32;0.40;;;;;;;11.46;89.98;100001.00;6123432;23;20020;-73
2022/01/02 09:38:14;;;;;;;0.93;0.65;;;;;;;11.57;89.80;99994.34;6148798;23;20006;-71
2022/01/02 09:41:18;;;;;;;;;;;;;;;;;;;;;
2022/01/02 09:44:01;;;;;;;1.83;0.73;;;;;;;12.09;89.79;100002.25;6148797;23;20615;-72
2022/01/02 09:50:23;;;;;;;;;;;;;;;;;;;;;
2022/01/02 09:53:26;;;;;;;3.50;0.50;;;;;;;12.34;85.49;99991.06;6144156;23;20233;-72
2022/01/02 09:56:18;;;;;;;1.17;0.43;;;;;;;12.29;85.71;100009.47;6148935;23;20020;-74
2022/01/02 09:58:44;;;;;;;5.53;0.57;;;;;;;12.09;85.85;99999.50;6149437;23;20002;-73
2022/01/02 10:01:36;;;;;;;;;;;;;;;;;;;;;
2022/01/02 10:04:02;;;;;;;4.45;1.05;;;;;;;11.79;86.97;100001.34;6147933;23;20686;-71
2022/01/02 10:07:37;;;;;;;;;;;;;;;;;;;;;
2022/01/02 10:10:05;;;;;;;;;;;;;;;;;;;;;
2022/01/02 10:13:18;;;;;;;;;;;;;;;;;;;;;
2022/01/02 10:15:47;;;;;;;5.95;1.33;;;;;;;11.58;87.10;99990.53;6150494;23;20084;-76
2022/01/02 10:18:45;;;;;;;1.83;0.50;;;;;;;11.54;87.28;100019.56;6150565;23;20013;-75
2022/01/02 10:22:06;;;;;;;;;;;;;;;;;;;;;
2022/01/02 10:25:09;;;;;;;;;;;;;;;;;;;;;
2022/01/02 10:27:53;;;;;;;;;;;;;;;;;;;;;
2022/01/02 10:30:22;;;;;;;5.10;0.55;;;;;;;11.46;88.15;99992.78;6172806;23;20095;-71
2022/01/02 10:32:59;;;;;;;4.90;0.70;;;;;;;11.37;87.99;99989.00;6182983;23;20001;-73
2022/01/02 10:35:28;;;;;;;5.43;0.50;;;;;;;11.48;87.86;99996.06;6131846;23;20016;-73
2022/01/02 10:37:57;;;;;;;5.05;0.60;;;;;;;11.38;88.56;99976.97;6182692;23;20001;-74
2022/01/02 10:40:39;;;;;;;1.17;0.40;;;;;;;11.48;88.93;99971.44;6157044;23;20052;-75
2022/01/02 10:43:25;;;;;;;1.17;0.57;;;;;;;11.41;88.66;99957.22;6158397;23;20005;-74
2022/01/02 10:49:17;;;;;;;;;;;;;;;;;;;;;
2022/01/02 10:55:05;;;;;;;;;;;;;;;;;;;;;
2022/01/02 10:58:07;;;;;;;;;;;;;;;;;;;;;
2022/01/02 11:01:20;;;;;;;;;;;;;;;;;;;;;
2022/01/02 11:04:17;;;;;;;;;;;;;;;;;;;;;
2022/01/02 11:07:02;;;;;;;3.75;0.70;;;;;;;11.63;88.34;99949.41;6183977;23;20079;-74
2022/01/02 11:09:31;;;;;;;3.70;1.10;;;;;;;11.55;87.98;99919.91;6185466;23;20009;-75
2022/01/02 11:15:04;;;;;;;;;;;;;;;;;;;;;
2022/01/02 11:18:10;;;;;;;;;;;;;;;;;;;;;
2022/01/02 11:21:21;;;;;;;4.47;0.80;;;;;;;11.97;87.39;99926.72;6191714;23;20067;-73
2022/01/02 11:24:40;;;;;;;;;;;;;;;;;;;;;
2022/01/02 11:38:19;;;;;;;;;;;;;;;;;;;;;
2022/01/02 11:41:01;;;;;;;8.23;1.67;;;;;;;11.82;88.59;99900.22;6038705;23;20078;-77
2022/01/02 11:46:56;;;;;;;;;;;;;;;;;;;;;
2022/01/02 11:49:55;;;;;;;;;;;;;;;;;;;;;
2022/01/02 11:59:52;;;;;;;9.85;1.40;;;;;;;11.73;88.71;99871.03;5959003;24;20044;-76
2022/01/02 12:06:26;;;;;;;;;;;;;;;;;;;;;
2022/01/02 12:23:15;;;;;;;;;;;;;;;;;;;;;
2022/01/02 12:26:21;;;;;;;;;;;;;;;;;;;;;
2022/01/02 12:58:06;;;;;;;18.15;1.88;;;;;;;11.19;91.17;99764.13;6179962;22;20025;-76
2022/01/02 13:00:41;;;;;;;5.55;1.02;;;;;;;11.07;91.31;99730.84;6183826;23;20024;-77
2022/01/02 13:03:07;;;;;;;11.13;1.58;;;;;;;10.97;91.53;99720.81;6159658;23;20100;-76
2022/01/02 13:05:54;;;;;;;4.50;1.08;;;;;;;11.14;91.96;99725.84;6126259;23;20040;-76
2022/01/02 13:08:45;;;;;;;;;;;;;;;;;;;;;
2022/01/02 13:11:11;;;;;;;10.13;1.25;;;;;;;10.95;91.89;99712.06;6177127;23;20072;-73
2022/01/02 13:13:36;;;;;;;11.57;2.03;;;;;;;11.03;91.94;99733.34;6177793;23;20381;-74
2022/01/02 13:16:09;;;;;;;13.30;1.33;;;;;;;11.02;92.06;99728.97;6176331;23;20088;-73
2022/01/02 13:18:39;;;;;;;15.63;1.80;;;;;;;10.99;92.44;99727.63;6156907;23;20001;-74
2022/01/02 13:21:06;;;;;;;12.75;2.03;;;;;;;10.94;92.74;99713.97;6180610;23;20009;-74
2022/01/02 13:23:32;;;;;;;8.02;1.45;;;;;;;10.93;92.39;99712.34;6183245;23;20067;-73
2022/01/02 13:25:58;;;;;;;11.32;1.88;;;;;;;10.91;92.80;99703.63;6182193;23;20005;-75
2022/01/02 13:28:27;;;;;;;16.42;2.03;;;;;;;10.79;93.11;99690.31;6156052;23;20074;-72
2022/01/02 13:30:54;;;;;;;13.38;1.35;;;;;;;10.76;92.26;99701.00;6180318;23;20017;-74
2022/01/02 13:33:26;;;;;;;5.53;0.75;;;;;;;10.70;92.41;99681.06;6181197;23;20013;-72
2022/01/02 13:35:55;;;;;;;17.42;1.85;;;;;;;10.64;92.33;99698.63;6178794;23;20060;-73
2022/01/02 13:38:21;;;;;;;8.07;1.75;;;;;;;10.66;92.88;99701.91;6180282;23;20009;-75
2022/01/02 13:40:48;;;;;;;10.38;0.90;;;;;;;10.68;92.77;99696.94;6173668;23;20009;-73
2022/01/02 13:43:29;;;;;;;11.35;1.00;;;;;;;10.76;92.57;99692.78;6179420;23;20016;-77
2022/01/02 13:45:58;;;;;;;5.97;1.00;;;;;;;10.80;92.72;99680.19;6183463;23;20009;-77
2022/01/02 13:48:53;;;;;;;;;;;;;;;;;;;;;
2022/01/02 13:51:34;;;;;;;4.82;0.90;;;;;;;10.56;91.83;99691.84;6182621;23;20088;-74